Terminal Aerodrome Forecast
Issued by NWS Flagstaff, AZ

Home | Current Version | Previous Version | Text Only | Print | Product List | Glossary On
Versions: 1 2 3 4 5 6 7 8 9 10 11 12 13 14 15
000
FTUS45 KFGZ 061734
TAFINW
TAF
KINW 061734Z 0618/0718 32010KT P6SM SCT080 BKN120
      TEMPO 0620/0624 VRB15G30KT 6SM TSRA BKN080CB
     FM070300 24008KT P6SM FEW070 BKN120=

USA.gov is the U.S. government's official web portal to all federal, state and local government web resources and services.